Avalon — PBSF — position and weather

sailwx.info

Track history (hours):
 
Tides and Currents Weather Stations Pressure Air Temp Water Temp Dewpoint Dewpoint Depression Visibility Wind Speed Wind Dir Waves Ship Positions

Avalon

Last reported at 2015-May-28 11:32 UTC. Time now 2015-May-28 12:12 UTC.
Position N 51°54' E 004°24'.

Length 89 m; draft 5.3 m.

Type: Cargo ship. MMSI: 246578000.

Date/timePositionNaut miles runAvg speedWind from/ knotsBaromVisibWave heightAir tempDewpointWater temp
2015-May-28 11:32N 51°54' E 004°24'0 0.0
2015-May-28 10:32N 51°54' E 004°24'0 0.0
2015-May-28 09:32N 51°54' E 004°24'0 0.0
2015-May-28 08:32N 51°54' E 004°24'0 0.0
2015-May-28 07:32N 51°54' E 004°24'0 0.0
2015-May-28 06:32N 51°54' E 004°24'0 0.0
2015-May-28 05:32N 51°54' E 004°24'0 0.0
2015-May-28 04:32N 51°54' E 004°24'0 0.0
2015-May-28 03:32N 51°54' E 004°24'0 0.0
2015-May-28 02:32N 51°54' E 004°24'0 0.0
2015-May-28 01:32N 51°54' E 004°24'0 0.0
2015-May-28 00:32N 51°54' E 004°24'0 0.0
2015-May-27 23:33N 51°54' E 004°24'5 5.0
2015-May-27 22:33N 51°54' E 004°16'9 9.4
2015-May-27 21:33N 51°59' E 004°03'1110.4
2015-May-27 20:32N 51°58' E 003°46'2310.2
2015-May-27 18:19N 51°52' E 003°10'25 9.0
2015-May-27 15:33N 51°42' E 002°33'9 8.6
2015-May-27 14:33N 51°36' E 002°24'9 8.9
2015-May-27 13:33N 51°30' E 002°14'9 9.1
2015-May-27 12:33N 51°23' E 002°05'9 9.3
2015-May-27 11:34N 51°16' E 001°54'10 9.8
2015-May-27 10:34N 51°09' E 001°44'1110.1
2015-May-27 09:30N 50°60' E 001°36'96 9.6
2015-May-26 23:28N 50°28' W 000°48'9 9.8
2015-May-26 22:33N 50°29' W 001°02'9 9.0
2015-May-26 21:33N 50°31' W 001°15'9 8.4
2015-May-26 20:29N 50°34' W 001°29'8 8.3
2015-May-26 19:33N 50°36' W 001°41'9 9.0
2015-May-26 18:34N 50°39' W 001°54'5 4.9
2015-May-26 17:32N 50°43' W 001°59'0 0.0
2015-May-26 16:32N 50°43' W 001°59'0 0.0
2015-May-26 15:32N 50°43' W 001°59'0 0.0
2015-May-26 14:32N 50°43' W 001°59'0 0.0
2015-May-26 13:32N 50°43' W 001°59'0 0.0
2015-May-26 12:32N 50°43' W 001°59'0 0.0
2015-May-26 11:32N 50°43' W 001°59'0 0.0
2015-May-26 10:32N 50°43' W 001°59'0 0.0
2015-May-26 09:32N 50°43' W 001°59'0 0.0
2015-May-26 08:32N 50°43' W 001°59'0 0.0
2015-May-26 07:32N 50°43' W 001°59'0 0.0
2015-May-26 06:32N 50°43' W 001°59'0 0.0
2015-May-26 05:32N 50°43' W 001°59'0 0.0
2015-May-26 04:32N 50°43' W 001°59'0 0.0
2015-May-26 03:32N 50°43' W 001°59'0 0.0
2015-May-26 02:29N 50°43' W 001°59'0 0.0
2015-May-26 01:32N 50°43' W 001°59'0 0.0
2015-May-26 00:32N 50°43' W 001°59'0 0.0
2015-May-25 23:29N 50°43' W 001°59'0 0.0
2015-May-25 22:32N 50°43' W 001°59'0 0.0
2015-May-25 21:32N 50°43' W 001°59'0 0.0
2015-May-25 20:32N 50°43' W 001°59'0 0.0
2015-May-25 19:32N 50°43' W 001°59'0 0.0
2015-May-25 18:32N 50°43' W 001°59'0 0.0
2015-May-25 17:32N 50°43' W 001°59'0 0.0
2015-May-25 16:32N 50°43' W 001°59'0 0.0
2015-May-25 15:32N 50°43' W 001°59'0 0.0
2015-May-25 14:32N 50°43' W 001°59'0 0.0
2015-May-25 13:32N 50°43' W 001°59'0 0.0
2015-May-25 12:32N 50°43' W 001°59'0 0.0
2015-May-25 11:32N 50°43' W 001°59'0 0.0
2015-May-25 10:32N 50°43' W 001°59'0 0.0
2015-May-25 09:32N 50°43' W 001°59'0 0.0
2015-May-25 08:32N 50°43' W 001°59'0 0.0
2015-May-25 07:32N 50°43' W 001°59'0 0.0
2015-May-25 06:32N 50°43' W 001°59'0 0.0
2015-May-25 05:32N 50°43' W 001°59'0 0.0
2015-May-25 04:32N 50°43' W 001°59'0 0.0
2015-May-25 03:32N 50°43' W 001°59'0 0.0
2015-May-25 02:32N 50°43' W 001°59'0 0.0
2015-May-25 01:32N 50°43' W 001°59'0 0.0
2015-May-25 00:32N 50°43' W 001°59'0 0.0
2015-May-24 23:32N 50°43' W 001°59'0 0.0
2015-May-24 22:32N 50°43' W 001°59'0 0.0
2015-May-24 21:32N 50°43' W 001°59'0 0.0
2015-May-24 20:32N 50°43' W 001°59'0 0.0
2015-May-24 19:32N 50°43' W 001°59'0 0.0
2015-May-24 18:32N 50°43' W 001°59'0 0.0
2015-May-24 17:32N 50°43' W 001°59'0 0.0
2015-May-24 16:32N 50°43' W 001°59'0 0.0
2015-May-24 15:32N 50°43' W 001°59'0 0.0
2015-May-24 14:32N 50°43' W 001°59'0 0.0
2015-May-24 13:32N 50°43' W 001°59'0 0.0
2015-May-24 12:32N 50°43' W 001°59'0 0.0
2015-May-24 11:32N 50°43' W 001°59'0 0.0
2015-May-24 10:32N 50°43' W 001°59'0 0.0
2015-May-24 09:32N 50°43' W 001°59'0 0.0
2015-May-24 08:32N 50°43' W 001°59'0 0.0
2015-May-24 07:29N 50°43' W 001°59'0 0.0
2015-May-24 06:32N 50°43' W 001°59'0 0.0
2015-May-24 05:32N 50°43' W 001°59'0 0.0
2015-May-24 04:32N 50°43' W 001°59'0 0.0
2015-May-24 03:29N 50°43' W 001°59'0 0.0
2015-May-24 02:32N 50°43' W 001°59'0 0.0
2015-May-24 01:29N 50°43' W 001°59'0 0.0
2015-May-24 00:29N 50°43' W 001°59'0 0.0
2015-May-23 23:29N 50°43' W 001°59'0 0.0
2015-May-23 22:29N 50°43' W 001°59'0 0.0
2015-May-23 21:29N 50°43' W 001°59'0 0.0
2015-May-23 20:32N 50°43' W 001°59'0 0.0
2015-May-23 19:32N 50°43' W 001°59'0 0.0
2015-May-23 18:32N 50°43' W 001°59'0 0.0
2015-May-23 17:32N 50°43' W 001°59'0 0.0
2015-May-23 16:32N 50°43' W 001°59'0 0.0
2015-May-23 15:32N 50°43' W 001°59'0 0.0
2015-May-23 14:32N 50°43' W 001°59'0 0.0
2015-May-23 13:32N 50°43' W 001°59'0 0.0
2015-May-23 12:32N 50°43' W 001°59'0 0.0
2015-May-23 11:32N 50°43' W 001°59'0 0.0
2015-May-23 10:32N 50°43' W 001°59'0 0.0
2015-May-23 09:32N 50°43' W 001°59'0 0.0
2015-May-23 08:32N 50°43' W 001°59'0 0.0
2015-May-23 07:29N 50°43' W 001°59'0 0.0
2015-May-23 06:32N 50°43' W 001°59'0 0.0
2015-May-23 05:29N 50°43' W 001°59'0 0.0
2015-May-23 04:32N 50°43' W 001°59'0 0.0
2015-May-23 03:29N 50°43' W 001°59'0 0.0
2015-May-23 02:32N 50°43' W 001°59'0 0.0
2015-May-23 01:32N 50°43' W 001°59'0 0.0
2015-May-23 00:32N 50°43' W 001°59'0 0.0
2015-May-22 23:32N 50°43' W 001°59'0 0.0
2015-May-22 22:32N 50°43' W 001°59'0 0.0
2015-May-22 21:32N 50°43' W 001°59'0 0.0
2015-May-22 20:32N 50°43' W 001°59'0 0.0
2015-May-22 19:32N 50°43' W 001°59'0 0.0
2015-May-22 18:32N 50°43' W 001°59'0 0.0
2015-May-22 17:32N 50°43' W 001°59'0 0.0
2015-May-22 16:32N 50°43' W 001°59'0 0.0
2015-May-22 15:32N 50°43' W 001°59'0 0.0
2015-May-22 14:32N 50°43' W 001°59'0 0.0
2015-May-22 13:32N 50°43' W 001°59'0 0.0
2015-May-22 12:32N 50°43' W 001°59'0 0.0
2015-May-22 11:32N 50°43' W 001°59'0 0.0
2015-May-22 10:32N 50°43' W 001°59'0 0.0
2015-May-22 09:32N 50°43' W 001°59'0 0.0
2015-May-22 08:32N 50°43' W 001°59'0 0.0
2015-May-22 07:32N 50°43' W 001°59'0 0.0
2015-May-22 06:32N 50°43' W 001°59'0 0.0
2015-May-22 05:32N 50°43' W 001°59'0 0.0
2015-May-22 04:32N 50°43' W 001°59'0 0.0
2015-May-22 03:32N 50°43' W 001°59'0 0.0
2015-May-22 02:32N 50°43' W 001°59'0 0.0
2015-May-22 01:29N 50°43' W 001°59'0 0.0
2015-May-22 00:29N 50°43' W 001°59'0 0.0
2015-May-21 23:32N 50°43' W 001°59'0 0.0
2015-May-21 22:32N 50°43' W 001°59'0 0.0
2015-May-21 21:32N 50°43' W 001°59'0 0.0
2015-May-21 20:32N 50°43' W 001°59'0 0.0
2015-May-21 19:32N 50°43' W 001°59'0 0.0
2015-May-21 18:32N 50°43' W 001°59'0 0.0
2015-May-21 17:32N 50°43' W 001°59'0 0.0
2015-May-21 16:32N 50°43' W 001°59'0 0.0
2015-May-21 15:32N 50°43' W 001°59'0 0.0
2015-May-21 14:32N 50°43' W 001°59'0 0.0
2015-May-21 13:32N 50°43' W 001°59'0 0.0
2015-May-21 12:32N 50°43' W 001°59'0 0.0
2015-May-21 11:32N 50°43' W 001°59'0 0.0
2015-May-21 10:32N 50°43' W 001°59'0 0.0
2015-May-21 09:29N 50°43' W 001°59'0 0.0
2015-May-21 08:32N 50°43' W 001°59'0 0.0
2015-May-21 07:29N 50°43' W 001°59'1 0.7
2015-May-21 06:33N 50°42' W 001°58'9 8.6
2015-May-21 05:33N 50°38' W 001°47'9 8.5
2015-May-21 04:31N 50°35' W 001°33'8 8.2
2015-May-21 03:30N 50°33' W 001°21'8 8.4
2015-May-21 02:33N 50°32' W 001°09'9 8.6
2015-May-21 01:33N 50°35' W 000°56'9 8.7
2015-May-21 00:33N 50°37' W 000°42'9 8.8
2015-May-20 23:33N 50°40' W 000°30'9 8.5
2015-May-20 22:33N 50°45' W 000°19'5 5.2
2015-May-20 21:32N 50°50' W 000°14'0 0.0
2015-May-20 20:32N 50°50' W 000°14'0 0.0
2015-May-20 19:29N 50°50' W 000°14'0 0.0
2015-May-20 18:29N 50°50' W 000°14'0 0.0
2015-May-20 17:29N 50°50' W 000°14'0 0.0
2015-May-20 16:29N 50°50' W 000°14'0 0.0
2015-May-20 15:29N 50°50' W 000°14'0 0.0
2015-May-20 14:29N 50°50' W 000°14'0 0.0
2015-May-20 13:23N 50°50' W 000°14'0 0.0
2015-May-20 12:23N 50°50' W 000°14'0 0.0
2015-May-20 11:32N 50°50' W 000°14'0 0.0
2015-May-20 10:29N 50°50' W 000°14'0 0.0
2015-May-20 09:26N 50°50' W 000°14'0 0.0
2015-May-20 08:32N 50°50' W 000°14'0 0.0
2015-May-20 07:29N 50°50' W 000°14'0 0.0
2015-May-20 06:29N 50°50' W 000°14'0 0.0
2015-May-20 05:32N 50°50' W 000°14'0 0.0
2015-May-20 04:32N 50°50' W 000°14'0 0.0
2015-May-20 03:32N 50°50' W 000°14'0 0.0
2015-May-20 02:32N 50°50' W 000°14'0 0.0
2015-May-20 01:32N 50°50' W 000°14'0 0.0
2015-May-20 00:32N 50°50' W 000°14'0 0.0
2015-May-19 23:32N 50°50' W 000°14'0 0.0
2015-May-19 22:32N 50°50' W 000°14'0 0.0
2015-May-19 21:32N 50°50' W 000°14'0 0.0
2015-May-19 20:32N 50°50' W 000°14'0 0.0
2015-May-19 19:32N 50°50' W 000°14'0 0.0
2015-May-19 18:29N 50°50' W 000°14'0 0.0
2015-May-19 17:29N 50°50' W 000°14'0 0.0
2015-May-19 16:29N 50°50' W 000°14'0 0.0
2015-May-19 15:29N 50°50' W 000°14'0 0.0
2015-May-19 14:29N 50°50' W 000°14'0 0.0
2015-May-19 12:23N 50°50' W 000°14'0 0.0
2015-May-19 11:11N 50°50' W 000°14'0 0.0
2015-May-19 10:30N 50°50' W 000°14'5 4.0
2015-May-19 09:21N 50°45' W 000°16'4 5.0
2015-May-19 08:33N 50°43' W 000°21'5 5.5
2015-May-19 07:33N 50°41' W 000°29'6 5.7
2015-May-19 06:33N 50°38' W 000°37'7 7.0
2015-May-19 05:33N 50°36' W 000°47'8 8.3
2015-May-19 04:33N 50°34' W 000°60'7 6.7
2015-May-19 03:34N 50°32' W 001°10'5 5.3
2015-May-19 02:33N 50°31' W 001°18'24 6.0
2015-May-18 22:33N 50°24' W 001°54'9 8.6
2015-May-18 21:33N 50°22' W 002°07'21 9.7
2015-May-18 19:22N 50°17' W 002°39'810.0
2015-May-18 18:33N 50°15' W 002°52'1010.4
2015-May-18 17:34N 50°12' W 003°07'1010.2
2015-May-18 16:34N 50°09' W 003°22'  
Track history (hours):
 
Tides and Currents Weather Stations Pressure Air Temp Water Temp Dewpoint Dewpoint Depression Visibility Wind Speed Wind Dir Waves Ship Positions

Avalon

Last reported at 2015-May-28 11:32 UTC. Time now 2015-May-28 12:12 UTC.
Position N 51°54' E 004°24'.

Length 89 m; draft 5.3 m.

Type: Cargo ship. MMSI: 246578000.

Date/timePositionNaut miles runAvg speedWind from/ knotsBaromVisibWave heightAir tempDewpointWater temp
2015-May-28 11:32N 51°54' E 004°24'0 0.0
2015-May-28 10:32N 51°54' E 004°24'0 0.0
2015-May-28 09:32N 51°54' E 004°24'0 0.0
2015-May-28 08:32N 51°54' E 004°24'0 0.0
2015-May-28 07:32N 51°54' E 004°24'0 0.0
2015-May-28 06:32N 51°54' E 004°24'0 0.0
2015-May-28 05:32N 51°54' E 004°24'0 0.0
2015-May-28 04:32N 51°54' E 004°24'0 0.0
2015-May-28 03:32N 51°54' E 004°24'0 0.0
2015-May-28 02:32N 51°54' E 004°24'0 0.0
2015-May-28 01:32N 51°54' E 004°24'0 0.0
2015-May-28 00:32N 51°54' E 004°24'0 0.0
2015-May-27 23:33N 51°54' E 004°24'5 5.0
2015-May-27 22:33N 51°54' E 004°16'9 9.4
2015-May-27 21:33N 51°59' E 004°03'1110.4
2015-May-27 20:32N 51°58' E 003°46'2310.2
2015-May-27 18:19N 51°52' E 003°10'25 9.0
2015-May-27 15:33N 51°42' E 002°33'9 8.6
2015-May-27 14:33N 51°36' E 002°24'9 8.9
2015-May-27 13:33N 51°30' E 002°14'9 9.1
2015-May-27 12:33N 51°23' E 002°05'9 9.3
2015-May-27 11:34N 51°16' E 001°54'10 9.8
2015-May-27 10:34N 51°09' E 001°44'1110.1
2015-May-27 09:30N 50°60' E 001°36'96 9.6
2015-May-26 23:28N 50°28' W 000°48'9 9.8
2015-May-26 22:33N 50°29' W 001°02'9 9.0
2015-May-26 21:33N 50°31' W 001°15'9 8.4
2015-May-26 20:29N 50°34' W 001°29'8 8.3
2015-May-26 19:33N 50°36' W 001°41'9 9.0
2015-May-26 18:34N 50°39' W 001°54'5 4.9
2015-May-26 17:32N 50°43' W 001°59'0 0.0
2015-May-26 16:32N 50°43' W 001°59'0 0.0
2015-May-26 15:32N 50°43' W 001°59'0 0.0
2015-May-26 14:32N 50°43' W 001°59'0 0.0
2015-May-26 13:32N 50°43' W 001°59'0 0.0
2015-May-26 12:32N 50°43' W 001°59'0 0.0
2015-May-26 11:32N 50°43' W 001°59'0 0.0
2015-May-26 10:32N 50°43' W 001°59'0 0.0
2015-May-26 09:32N 50°43' W 001°59'0 0.0
2015-May-26 08:32N 50°43' W 001°59'0 0.0
2015-May-26 07:32N 50°43' W 001°59'0 0.0
2015-May-26 06:32N 50°43' W 001°59'0 0.0
2015-May-26 05:32N 50°43' W 001°59'0 0.0
2015-May-26 04:32N 50°43' W 001°59'0 0.0
2015-May-26 03:32N 50°43' W 001°59'0 0.0
2015-May-26 02:29N 50°43' W 001°59'0 0.0
2015-May-26 01:32N 50°43' W 001°59'0 0.0
2015-May-26 00:32N 50°43' W 001°59'0 0.0
2015-May-25 23:29N 50°43' W 001°59'0 0.0
2015-May-25 22:32N 50°43' W 001°59'0 0.0
2015-May-25 21:32N 50°43' W 001°59'0 0.0
2015-May-25 20:32N 50°43' W 001°59'0 0.0
2015-May-25 19:32N 50°43' W 001°59'0 0.0
2015-May-25 18:32N 50°43' W 001°59'0 0.0
2015-May-25 17:32N 50°43' W 001°59'0 0.0
2015-May-25 16:32N 50°43' W 001°59'0 0.0
2015-May-25 15:32N 50°43' W 001°59'0 0.0
2015-May-25 14:32N 50°43' W 001°59'0 0.0
2015-May-25 13:32N 50°43' W 001°59'0 0.0
2015-May-25 12:32N 50°43' W 001°59'0 0.0
2015-May-25 11:32N 50°43' W 001°59'0 0.0
2015-May-25 10:32N 50°43' W 001°59'0 0.0
2015-May-25 09:32N 50°43' W 001°59'0 0.0
2015-May-25 08:32N 50°43' W 001°59'0 0.0
2015-May-25 07:32N 50°43' W 001°59'0 0.0
2015-May-25 06:32N 50°43' W 001°59'0 0.0
2015-May-25 05:32N 50°43' W 001°59'0 0.0
2015-May-25 04:32N 50°43' W 001°59'0 0.0
2015-May-25 03:32N 50°43' W 001°59'0 0.0
2015-May-25 02:32N 50°43' W 001°59'0 0.0
2015-May-25 01:32N 50°43' W 001°59'0 0.0
2015-May-25 00:32N 50°43' W 001°59'0 0.0
2015-May-24 23:32N 50°43' W 001°59'0 0.0
2015-May-24 22:32N 50°43' W 001°59'0 0.0
2015-May-24 21:32N 50°43' W 001°59'0 0.0
2015-May-24 20:32N 50°43' W 001°59'0 0.0
2015-May-24 19:32N 50°43' W 001°59'0 0.0
2015-May-24 18:32N 50°43' W 001°59'0 0.0
2015-May-24 17:32N 50°43' W 001°59'0 0.0
2015-May-24 16:32N 50°43' W 001°59'0 0.0
2015-May-24 15:32N 50°43' W 001°59'0 0.0
2015-May-24 14:32N 50°43' W 001°59'0 0.0
2015-May-24 13:32N 50°43' W 001°59'0 0.0
2015-May-24 12:32N 50°43' W 001°59'0 0.0
2015-May-24 11:32N 50°43' W 001°59'0 0.0
2015-May-24 10:32N 50°43' W 001°59'0 0.0
2015-May-24 09:32N 50°43' W 001°59'0 0.0
2015-May-24 08:32N 50°43' W 001°59'0 0.0
2015-May-24 07:29N 50°43' W 001°59'0 0.0
2015-May-24 06:32N 50°43' W 001°59'0 0.0
2015-May-24 05:32N 50°43' W 001°59'0 0.0
2015-May-24 04:32N 50°43' W 001°59'0 0.0
2015-May-24 03:29N 50°43' W 001°59'0 0.0
2015-May-24 02:32N 50°43' W 001°59'0 0.0
2015-May-24 01:29N 50°43' W 001°59'0 0.0
2015-May-24 00:29N 50°43' W 001°59'0 0.0
2015-May-23 23:29N 50°43' W 001°59'0 0.0
2015-May-23 22:29N 50°43' W 001°59'0 0.0
2015-May-23 21:29N 50°43' W 001°59'0 0.0
2015-May-23 20:32N 50°43' W 001°59'0 0.0
2015-May-23 19:32N 50°43' W 001°59'0 0.0
2015-May-23 18:32N 50°43' W 001°59'0 0.0
2015-May-23 17:32N 50°43' W 001°59'0 0.0
2015-May-23 16:32N 50°43' W 001°59'0 0.0
2015-May-23 15:32N 50°43' W 001°59'0 0.0
2015-May-23 14:32N 50°43' W 001°59'0 0.0
2015-May-23 13:32N 50°43' W 001°59'0 0.0
2015-May-23 12:32N 50°43' W 001°59'0 0.0
2015-May-23 11:32N 50°43' W 001°59'0 0.0
2015-May-23 10:32N 50°43' W 001°59'0 0.0
2015-May-23 09:32N 50°43' W 001°59'0 0.0
2015-May-23 08:32N 50°43' W 001°59'0 0.0
2015-May-23 07:29N 50°43' W 001°59'0 0.0
2015-May-23 06:32N 50°43' W 001°59'0 0.0
2015-May-23 05:29N 50°43' W 001°59'0 0.0
2015-May-23 04:32N 50°43' W 001°59'0 0.0
2015-May-23 03:29N 50°43' W 001°59'0 0.0
2015-May-23 02:32N 50°43' W 001°59'0 0.0
2015-May-23 01:32N 50°43' W 001°59'0 0.0
2015-May-23 00:32N 50°43' W 001°59'0 0.0
2015-May-22 23:32N 50°43' W 001°59'0 0.0
2015-May-22 22:32N 50°43' W 001°59'0 0.0
2015-May-22 21:32N 50°43' W 001°59'0 0.0
2015-May-22 20:32N 50°43' W 001°59'0 0.0
2015-May-22 19:32N 50°43' W 001°59'0 0.0
2015-May-22 18:32N 50°43' W 001°59'0 0.0
2015-May-22 17:32N 50°43' W 001°59'0 0.0
2015-May-22 16:32N 50°43' W 001°59'0 0.0
2015-May-22 15:32N 50°43' W 001°59'0 0.0
2015-May-22 14:32N 50°43' W 001°59'0 0.0
2015-May-22 13:32N 50°43' W 001°59'0 0.0
2015-May-22 12:32N 50°43' W 001°59'0 0.0
2015-May-22 11:32N 50°43' W 001°59'0 0.0
2015-May-22 10:32N 50°43' W 001°59'0 0.0
2015-May-22 09:32N 50°43' W 001°59'0 0.0
2015-May-22 08:32N 50°43' W 001°59'0 0.0
2015-May-22 07:32N 50°43' W 001°59'0 0.0
2015-May-22 06:32N 50°43' W 001°59'0 0.0
2015-May-22 05:32N 50°43' W 001°59'0 0.0
2015-May-22 04:32N 50°43' W 001°59'0 0.0
2015-May-22 03:32N 50°43' W 001°59'0 0.0
2015-May-22 02:32N 50°43' W 001°59'0 0.0
2015-May-22 01:29N 50°43' W 001°59'0 0.0
2015-May-22 00:29N 50°43' W 001°59'0 0.0
2015-May-21 23:32N 50°43' W 001°59'0 0.0
2015-May-21 22:32N 50°43' W 001°59'0 0.0
2015-May-21 21:32N 50°43' W 001°59'0 0.0
2015-May-21 20:32N 50°43' W 001°59'0 0.0
2015-May-21 19:32N 50°43' W 001°59'0 0.0
2015-May-21 18:32N 50°43' W 001°59'0 0.0
2015-May-21 17:32N 50°43' W 001°59'0 0.0
2015-May-21 16:32N 50°43' W 001°59'0 0.0
2015-May-21 15:32N 50°43' W 001°59'0 0.0
2015-May-21 14:32N 50°43' W 001°59'0 0.0
2015-May-21 13:32N 50°43' W 001°59'0 0.0
2015-May-21 12:32N 50°43' W 001°59'0 0.0
2015-May-21 11:32N 50°43' W 001°59'0 0.0
2015-May-21 10:32N 50°43' W 001°59'0 0.0
2015-May-21 09:29N 50°43' W 001°59'0 0.0
2015-May-21 08:32N 50°43' W 001°59'0 0.0
2015-May-21 07:29N 50°43' W 001°59'1 0.7
2015-May-21 06:33N 50°42' W 001°58'9 8.6
2015-May-21 05:33N 50°38' W 001°47'9 8.5
2015-May-21 04:31N 50°35' W 001°33'8 8.2
2015-May-21 03:30N 50°33' W 001°21'8 8.4
2015-May-21 02:33N 50°32' W 001°09'9 8.6
2015-May-21 01:33N 50°35' W 000°56'9 8.7
2015-May-21 00:33N 50°37' W 000°42'9 8.8
2015-May-20 23:33N 50°40' W 000°30'9 8.5
2015-May-20 22:33N 50°45' W 000°19'5 5.2
2015-May-20 21:32N 50°50' W 000°14'0 0.0
2015-May-20 20:32N 50°50' W 000°14'0 0.0
2015-May-20 19:29N 50°50' W 000°14'0 0.0
2015-May-20 18:29N 50°50' W 000°14'0 0.0
2015-May-20 17:29N 50°50' W 000°14'0 0.0
2015-May-20 16:29N 50°50' W 000°14'0 0.0
2015-May-20 15:29N 50°50' W 000°14'0 0.0
2015-May-20 14:29N 50°50' W 000°14'0 0.0
2015-May-20 13:23N 50°50' W 000°14'0 0.0
2015-May-20 12:23N 50°50' W 000°14'0 0.0
2015-May-20 11:32N 50°50' W 000°14'0 0.0
2015-May-20 10:29N 50°50' W 000°14'0 0.0
2015-May-20 09:26N 50°50' W 000°14'0 0.0
2015-May-20 08:32N 50°50' W 000°14'0 0.0
2015-May-20 07:29N 50°50' W 000°14'0 0.0
2015-May-20 06:29N 50°50' W 000°14'0 0.0
2015-May-20 05:32N 50°50' W 000°14'0 0.0
2015-May-20 04:32N 50°50' W 000°14'0 0.0
2015-May-20 03:32N 50°50' W 000°14'0 0.0
2015-May-20 02:32N 50°50' W 000°14'0 0.0
2015-May-20 01:32N 50°50' W 000°14'0 0.0
2015-May-20 00:32N 50°50' W 000°14'0 0.0
2015-May-19 23:32N 50°50' W 000°14'0 0.0
2015-May-19 22:32N 50°50' W 000°14'0 0.0
2015-May-19 21:32N 50°50' W 000°14'0 0.0
2015-May-19 20:32N 50°50' W 000°14'0 0.0
2015-May-19 19:32N 50°50' W 000°14'0 0.0
2015-May-19 18:29N 50°50' W 000°14'0 0.0
2015-May-19 17:29N 50°50' W 000°14'0 0.0
2015-May-19 16:29N 50°50' W 000°14'0 0.0
2015-May-19 15:29N 50°50' W 000°14'0 0.0
2015-May-19 14:29N 50°50' W 000°14'0 0.0
2015-May-19 12:23N 50°50' W 000°14'0 0.0
2015-May-19 11:11N 50°50' W 000°14'0 0.0
2015-May-19 10:30N 50°50' W 000°14'5 4.0
2015-May-19 09:21N 50°45' W 000°16'4 5.0
2015-May-19 08:33N 50°43' W 000°21'5 5.5
2015-May-19 07:33N 50°41' W 000°29'6 5.7
2015-May-19 06:33N 50°38' W 000°37'7 7.0
2015-May-19 05:33N 50°36' W 000°47'8 8.3
2015-May-19 04:33N 50°34' W 000°60'7 6.7
2015-May-19 03:34N 50°32' W 001°10'5 5.3
2015-May-19 02:33N 50°31' W 001°18'24 6.0
2015-May-18 22:33N 50°24' W 001°54'9 8.6
2015-May-18 21:33N 50°22' W 002°07'21 9.7
2015-May-18 19:22N 50°17' W 002°39'810.0
2015-May-18 18:33N 50°15' W 002°52'1010.4
2015-May-18 17:34N 50°12' W 003°07'1010.2
2015-May-18 16:34N 50°09' W 003°22'  

Dump ship's entire track history